createdAt,value
2023-05-01T00:00:44.554Z,10.86
2023-05-01T00:03:19.078Z,10.83
2023-05-01T00:05:49.905Z,10.78
2023-05-01T00:08:20.433Z,10.74
2023-05-01T00:10:50.549Z,10.70
2023-05-01T00:13:22.656Z,10.65
2023-05-01T00:15:55.332Z,10.60
2023-05-01T00:18:26.025Z,10.54
2023-05-01T00:20:57.379Z,10.50
2023-05-01T00:23:28.106Z,10.46
2023-05-01T00:25:59.055Z,10.42
2023-05-01T00:28:30.386Z,10.39
2023-05-01T00:31:01.122Z,10.37
2023-05-01T00:33:32.884Z,10.33
2023-05-01T00:36:04.225Z,10.29
2023-05-01T00:38:34.962Z,10.25
2023-05-01T00:41:05.288Z,10.19
2023-05-01T00:43:35.833Z,10.13
2023-05-01T00:46:07.992Z,10.08
2023-05-01T00:48:38.912Z,10.06
2023-05-01T00:51:10.266Z,10.04
2023-05-01T00:53:41.516Z,10.01
2023-05-01T00:56:12.883Z,9.99
2023-05-01T00:58:45.159Z,9.95
2023-05-01T01:01:16.923Z,9.93
2023-05-01T01:03:47.430Z,9.91
2023-05-01T01:06:28.184Z,9.90
2023-05-01T01:09:07.961Z,9.89
2023-05-01T01:11:48.483Z,9.88
2023-05-01T01:14:25.195Z,9.88
2023-05-01T01:17:04.905Z,9.88
2023-05-01T01:20:30.922Z,9.88
2023-05-01T01:23:33.189Z,9.87
2023-05-01T01:26:39.650Z,9.87
2023-05-01T01:29:39.170Z,9.88
2023-05-01T01:32:31.152Z,9.89
2023-05-01T01:35:06.847Z,9.89
2023-05-01T01:37:44.374Z,9.89
2023-05-01T01:40:18.985Z,9.93
2023-05-01T01:42:56.455Z,9.95
2023-05-01T01:45:30.700Z,9.96
2023-05-01T01:48:03.748Z,10.00
2023-05-01T01:50:37.472Z,10.02
2023-05-01T01:53:11.880Z,10.06
2023-05-01T01:55:45.374Z,10.09
2023-05-01T01:58:18.463Z,10.13
2023-05-01T02:00:49.200Z,10.12
2023-05-01T02:03:22.207Z,10.16
2023-05-01T02:05:55.167Z,10.19
2023-05-01T02:08:29.353Z,10.21
2023-05-01T02:11:02.378Z,10.24
2023-05-01T02:13:34.528Z,10.25
2023-05-01T02:16:05.904Z,10.28
2023-05-01T02:18:38.657Z,10.31
2023-05-01T02:21:10.210Z,10.34
2023-05-01T02:23:41.347Z,10.36
2023-05-01T02:26:16.454Z,10.38
2023-05-01T02:28:46.914Z,10.41
2023-05-01T02:31:17.694Z,10.44
2023-05-01T02:33:48.379Z,10.47
2023-05-01T02:36:19.313Z,10.49
2023-05-01T02:38:50.625Z,10.51
2023-05-01T02:41:22.445Z,10.52
2023-05-01T02:43:56.680Z,10.53
2023-05-01T02:46:28.845Z,10.54
2023-05-01T02:49:01.166Z,10.54
2023-05-01T02:51:33.025Z,10.53
2023-05-01T02:54:03.873Z,10.54
2023-05-01T02:56:34.412Z,10.51
2023-05-01T02:59:06.401Z,10.51
2023-05-01T03:01:37.559Z,10.49
2023-05-01T03:04:09.092Z,10.48
2023-05-01T03:06:39.651Z,10.47
2023-05-01T03:09:09.509Z,10.46
2023-05-01T03:11:40.287Z,10.45
2023-05-01T03:14:11.564Z,10.42
2023-05-01T03:16:44.155Z,10.39
2023-05-01T03:19:15.087Z,10.36
2023-05-01T03:21:45.402Z,10.34
2023-05-01T03:24:15.310Z,10.31
2023-05-01T03:26:46.045Z,10.27
2023-05-01T03:29:16.185Z,10.22
2023-05-01T03:31:46.960Z,10.18
2023-05-01T03:34:17.624Z,10.15
2023-05-01T03:36:48.355Z,10.10
2023-05-01T03:39:18.883Z,10.07
2023-05-01T03:42:28.562Z,10.04
2023-05-01T03:45:03.147Z,10.01
2023-05-01T03:47:33.950Z,9.97
2023-05-01T03:50:06.055Z,9.94
2023-05-01T03:52:37.192Z,9.92
2023-05-01T03:55:09.698Z,9.89
2023-05-01T03:57:47.543Z,9.87
2023-05-01T04:00:19.222Z,9.85
2023-05-01T04:02:49.905Z,9.83
2023-05-01T04:05:24.088Z,9.82
2023-05-01T04:07:57.771Z,9.79
2023-05-01T04:10:28.095Z,9.79
2023-05-01T04:13:06.603Z,9.78
2023-05-01T04:15:37.410Z,9.77
2023-05-01T04:18:09.368Z,9.77
2023-05-01T04:20:40.459Z,9.78
2023-05-01T04:23:12.412Z,9.81
2023-05-01T04:25:43.548Z,9.86
2023-05-01T04:28:16.733Z,9.91
2023-05-01T04:30:47.876Z,9.95
2023-05-01T04:33:18.196Z,10.03
2023-05-01T04:35:49.489Z,10.09
2023-05-01T04:38:20.483Z,10.17
2023-05-01T04:40:52.236Z,10.24
2023-05-01T04:43:22.762Z,10.32
2023-05-01T04:45:54.316Z,10.42
2023-05-01T04:48:25.258Z,10.52
2023-05-01T04:50:55.786Z,10.61
2023-05-01T04:53:26.720Z,10.71
2023-05-01T04:55:57.665Z,10.80
2023-05-01T04:58:29.029Z,10.93
2023-05-01T05:01:03.057Z,11.05
2023-05-01T05:03:33.887Z,11.18
2023-05-01T05:06:04.735Z,11.29
2023-05-01T05:08:35.039Z,11.41
2023-05-01T05:11:12.498Z,11.53
2023-05-01T05:14:04.731Z,11.66
2023-05-01T05:16:36.307Z,11.78
2023-05-01T05:19:06.809Z,11.88
2023-05-01T05:21:39.805Z,12.03
2023-05-01T05:24:09.578Z,12.14
2023-05-01T05:26:40.035Z,12.25
2023-05-01T05:29:10.562Z,12.39
2023-05-01T05:31:41.326Z,12.51
2023-05-01T05:34:12.030Z,12.64
2023-05-01T05:36:42.961Z,12.76
2023-05-01T05:39:13.704Z,12.88
2023-05-01T05:41:44.213Z,12.99
2023-05-01T05:44:14.959Z,13.11
2023-05-01T05:46:46.516Z,13.25
2023-05-01T05:49:18.062Z,13.39
2023-05-01T05:51:48.795Z,13.51
2023-05-01T05:54:18.957Z,13.65
2023-05-01T05:56:50.054Z,13.81
2023-05-01T05:59:20.992Z,13.95
2023-05-01T06:01:51.725Z,14.10
2023-05-01T06:04:22.459Z,14.25
2023-05-01T06:06:53.038Z,14.42
2023-05-01T06:09:22.908Z,14.55
2023-05-01T06:11:53.018Z,14.70
2023-05-01T06:14:23.760Z,14.83
2023-05-01T06:16:55.307Z,14.95
2023-05-01T06:19:26.033Z,15.07
2023-05-01T06:22:02.296Z,15.20
2023-05-01T06:24:33.054Z,15.33
2023-05-01T06:27:04.792Z,15.47
2023-05-01T06:29:35.313Z,15.60
2023-05-01T06:32:07.487Z,15.73
2023-05-01T06:34:38.824Z,15.86
2023-05-01T06:37:10.585Z,16.00
2023-05-01T06:39:41.320Z,16.12
2023-05-01T06:42:15.738Z,16.23
2023-05-01T06:44:46.067Z,16.37
2023-05-01T06:47:16.787Z,16.48
2023-05-01T06:49:47.316Z,16.61
2023-05-01T06:52:17.433Z,16.76
2023-05-01T06:54:47.555Z,16.85
2023-05-01T06:57:18.300Z,16.96
2023-05-01T06:59:48.816Z,17.05
2023-05-01T07:02:19.789Z,17.15
2023-05-01T07:04:50.493Z,17.26
2023-05-01T07:07:21.421Z,17.36
2023-05-01T07:09:51.336Z,17.48
2023-05-01T07:12:22.895Z,17.58
2023-05-01T07:14:52.799Z,17.69
2023-05-01T07:17:23.177Z,17.81
2023-05-01T07:19:55.083Z,17.90
2023-05-01T07:22:25.819Z,17.99
2023-05-01T07:24:55.648Z,18.09
2023-05-01T07:27:25.864Z,18.18
2023-05-01T07:29:58.620Z,18.26
2023-05-01T07:32:30.220Z,18.38
2023-05-01T07:35:01.327Z,18.45
2023-05-01T07:37:31.445Z,18.55
2023-05-01T07:40:01.992Z,18.66
2023-05-01T07:42:32.293Z,18.78
2023-05-01T07:45:03.447Z,18.90
2023-05-01T07:47:33.992Z,18.99
2023-05-01T07:50:05.727Z,19.10
2023-05-01T07:52:36.714Z,19.19
2023-05-01T07:55:11.020Z,19.29
2023-05-01T07:57:42.018Z,19.42
2023-05-01T08:00:16.196Z,19.53
2023-05-01T08:02:46.856Z,19.67
2023-05-01T08:05:17.485Z,19.78
2023-05-01T08:07:47.811Z,19.86
2023-05-01T08:10:18.754Z,19.95
2023-05-01T08:12:49.276Z,20.03
2023-05-01T08:15:21.454Z,20.12
2023-05-01T08:17:51.983Z,20.21
2023-05-01T08:20:22.971Z,20.27
2023-05-01T08:22:53.237Z,20.36
2023-05-01T08:25:23.416Z,20.42
2023-05-01T08:27:53.267Z,20.50
2023-05-01T08:30:24.639Z,20.59
2023-05-01T08:32:54.964Z,20.70
2023-05-01T08:35:25.464Z,20.79
2023-05-01T08:37:55.996Z,20.91
2023-05-01T08:40:27.297Z,21.03
2023-05-01T08:42:58.690Z,21.14
2023-05-01T08:45:35.507Z,21.23
2023-05-01T08:48:09.749Z,21.30
2023-05-01T08:50:41.742Z,21.37
2023-05-01T08:53:14.936Z,21.47
2023-05-01T08:55:47.435Z,21.59
2023-05-01T08:58:19.747Z,21.74
2023-05-01T09:00:50.807Z,21.89
2023-05-01T09:03:22.460Z,22.02
2023-05-01T09:05:52.465Z,22.15
2023-05-01T09:08:23.223Z,22.27
2023-05-01T09:11:12.993Z,22.44
2023-05-01T09:13:43.529Z,22.60
2023-05-01T09:16:15.520Z,22.71
2023-05-01T09:18:46.440Z,22.81
2023-05-01T09:21:17.152Z,22.88
2023-05-01T09:23:50.782Z,22.97
2023-05-01T09:26:22.097Z,23.06
2023-05-01T09:28:57.426Z,23.15
2023-05-01T09:31:29.408Z,23.25
2023-05-01T09:34:01.264Z,23.36
2023-05-01T09:36:33.786Z,23.43
2023-05-01T09:39:03.996Z,23.54
2023-05-01T09:41:35.525Z,23.68
2023-05-01T09:44:05.842Z,23.77
2023-05-01T09:46:44.115Z,23.85
2023-05-01T09:49:15.095Z,23.97
2023-05-01T09:51:45.407Z,24.07
2023-05-01T09:54:21.214Z,24.17
2023-05-01T09:56:51.994Z,24.19
2023-05-01T09:59:24.708Z,24.17
2023-05-01T10:01:55.131Z,24.22
2023-05-01T10:04:33.402Z,24.30
2023-05-01T10:07:15.011Z,24.37
2023-05-01T10:09:43.524Z,24.36
2023-05-01T10:12:42.062Z,24.33
2023-05-01T10:15:24.864Z,24.31
2023-05-01T10:17:57.270Z,24.29
2023-05-01T10:20:27.980Z,24.29
2023-05-01T10:22:59.325Z,24.34
2023-05-01T10:25:31.917Z,24.35
2023-05-01T10:28:04.488Z,24.28
2023-05-01T10:30:36.853Z,24.25
2023-05-01T10:33:07.388Z,24.21
2023-05-01T10:35:43.723Z,24.23
2023-05-01T10:38:24.012Z,24.26
2023-05-01T10:40:54.537Z,24.30
2023-05-01T10:43:28.064Z,24.31
2023-05-01T10:46:27.788Z,24.40
2023-05-01T10:49:15.261Z,24.49
2023-05-01T10:52:03.645Z,24.56
2023-05-01T10:54:34.174Z,24.64
2023-05-01T10:57:06.520Z,24.74
2023-05-01T11:00:08.984Z,24.85
2023-05-01T11:02:40.149Z,24.99
2023-05-01T11:05:10.903Z,25.09
2023-05-01T11:07:41.389Z,25.19
2023-05-01T11:10:28.911Z,25.23
2023-05-01T11:12:59.457Z,25.27
2023-05-01T11:15:35.088Z,25.27
2023-05-01T11:18:06.736Z,25.26
2023-05-01T11:20:51.712Z,25.25
2023-05-01T11:23:23.230Z,25.22
2023-05-01T11:26:04.929Z,25.18
2023-05-01T11:28:37.159Z,25.14
2023-05-01T11:31:08.164Z,25.09
2023-05-01T11:33:39.300Z,25.00
2023-05-01T11:36:10.038Z,24.89
2023-05-01T11:38:51.221Z,24.81
2023-05-01T11:41:23.359Z,24.73
2023-05-01T11:43:55.378Z,24.71
2023-05-01T11:46:44.100Z,24.73
2023-05-01T11:49:14.838Z,24.74
2023-05-01T11:51:45.777Z,24.80
2023-05-01T11:54:16.296Z,24.81
2023-05-01T11:56:47.235Z,24.84
2023-05-01T11:59:19.002Z,24.90
2023-05-01T12:02:20.027Z,24.96
2023-05-01T12:04:50.412Z,25.03
2023-05-01T12:07:24.367Z,25.14
2023-05-01T12:09:54.087Z,25.25
2023-05-01T12:12:24.193Z,25.31
2023-05-01T12:14:55.137Z,25.42
2023-05-01T12:17:27.018Z,25.52
2023-05-01T12:19:57.625Z,25.55
2023-05-01T12:22:29.173Z,25.57
2023-05-01T12:25:00.586Z,25.55
2023-05-01T12:27:32.439Z,25.50
2023-05-01T12:30:03.420Z,25.48
2023-05-01T12:32:34.652Z,25.44
2023-05-01T12:35:16.368Z,25.38
2023-05-01T12:37:47.093Z,25.31
2023-05-01T12:40:18.553Z,25.26
2023-05-01T12:42:54.895Z,25.20
2023-05-01T12:45:25.601Z,25.11
2023-05-01T12:47:56.011Z,25.02
2023-05-01T12:50:26.894Z,24.93
2023-05-01T12:53:01.724Z,24.90
2023-05-01T12:55:33.806Z,24.92
2023-05-01T12:58:05.852Z,24.94
2023-05-01T13:00:46.007Z,24.96
2023-05-01T13:03:21.224Z,25.01
2023-05-01T13:05:53.887Z,25.03
2023-05-01T13:08:37.955Z,25.04
2023-05-01T13:11:13.401Z,25.07
2023-05-01T13:13:45.483Z,25.11
2023-05-01T13:16:17.544Z,25.16
2023-05-01T13:18:49.599Z,25.20
2023-05-01T13:21:21.688Z,25.24
2023-05-01T13:23:56.747Z,25.30
2023-05-01T13:26:29.876Z,25.39
2023-05-01T13:29:01.610Z,25.47
2023-05-01T13:31:32.727Z,25.55
2023-05-01T13:34:05.305Z,25.59
2023-05-01T13:36:35.005Z,25.60
2023-05-01T13:39:05.308Z,25.62
2023-05-01T13:41:36.229Z,25.70
2023-05-01T13:44:08.805Z,25.70
2023-05-01T13:46:42.447Z,25.69
2023-05-01T13:49:13.962Z,25.75
2023-05-01T13:51:46.104Z,25.80
2023-05-01T13:54:17.355Z,25.86
2023-05-01T13:56:47.799Z,25.88
2023-05-01T13:59:18.357Z,25.86
2023-05-01T14:01:48.538Z,25.80
2023-05-01T14:04:21.452Z,25.77
2023-05-01T14:06:52.522Z,25.78
2023-05-01T14:09:21.867Z,25.78
2023-05-01T14:11:52.599Z,25.71
2023-05-01T14:14:22.923Z,25.66
2023-05-01T14:17:08.134Z,25.63
2023-05-01T14:19:40.977Z,25.59
2023-05-01T14:22:11.916Z,25.51
2023-05-01T14:24:42.398Z,25.42
2023-05-01T14:27:15.014Z,25.34
2023-05-01T14:29:45.543Z,25.23
2023-05-01T14:32:17.097Z,25.13
2023-05-01T14:34:47.620Z,25.00
2023-05-01T14:37:18.155Z,24.90
2023-05-01T14:39:48.065Z,24.81
2023-05-01T14:42:18.180Z,24.73
2023-05-01T14:44:48.917Z,24.64
2023-05-01T14:47:21.983Z,24.54
2023-05-01T14:49:53.878Z,24.45
2023-05-01T14:52:24.398Z,24.38
2023-05-01T14:54:54.033Z,24.35
2023-05-01T14:57:25.054Z,24.34
2023-05-01T14:59:55.987Z,24.36
2023-05-01T15:02:26.586Z,24.33
2023-05-01T15:04:57.291Z,24.27
2023-05-01T15:07:27.780Z,24.23
2023-05-01T15:09:57.992Z,24.19
2023-05-01T15:12:28.859Z,24.13
2023-05-01T15:14:59.380Z,24.06
2023-05-01T15:17:31.090Z,24.02
2023-05-01T15:20:03.300Z,23.96
2023-05-01T15:22:33.821Z,23.91
2023-05-01T15:25:03.937Z,23.84
2023-05-01T15:27:34.873Z,23.80
2023-05-01T15:30:09.640Z,23.75
2023-05-01T15:32:40.555Z,23.71
2023-05-01T15:35:10.972Z,23.66
2023-05-01T15:37:41.911Z,23.59
2023-05-01T15:40:13.667Z,23.56
2023-05-01T15:42:45.210Z,23.53
2023-05-01T15:45:15.763Z,23.49
2023-05-01T15:47:46.542Z,23.45
2023-05-01T15:50:17.005Z,23.42
2023-05-01T15:52:47.735Z,23.38
2023-05-01T15:55:19.079Z,23.32
2023-05-01T15:57:49.071Z,23.25
2023-05-01T16:00:21.534Z,23.19
2023-05-01T16:02:52.239Z,23.09
2023-05-01T16:05:23.657Z,22.97
2023-05-01T16:07:54.449Z,22.86
2023-05-01T16:10:25.588Z,22.76
2023-05-01T16:12:56.050Z,22.70
2023-05-01T16:15:26.791Z,22.63
2023-05-01T16:17:57.540Z,22.56
2023-05-01T16:20:31.849Z,22.50
2023-05-01T16:23:02.461Z,22.42
2023-05-01T16:25:32.190Z,22.35
2023-05-01T16:28:06.006Z,22.27
2023-05-01T16:30:59.263Z,22.21
2023-05-01T16:33:29.962Z,22.13
2023-05-01T16:36:00.704Z,22.06
2023-05-01T16:38:34.249Z,21.94
2023-05-01T16:41:04.820Z,21.82
2023-05-01T16:43:35.776Z,21.71
2023-05-01T16:46:06.759Z,21.58
2023-05-01T16:48:37.645Z,21.46
2023-05-01T16:51:10.222Z,21.35
2023-05-01T16:53:40.535Z,21.27
2023-05-01T16:56:11.059Z,21.18
2023-05-01T16:58:43.376Z,21.12
2023-05-01T17:01:13.990Z,21.02
2023-05-01T17:03:44.491Z,20.93
2023-05-01T17:06:15.285Z,20.85
2023-05-01T17:08:45.554Z,20.77
2023-05-01T17:11:16.076Z,20.67
2023-05-01T17:13:47.854Z,20.57
2023-05-01T17:16:19.706Z,20.46
2023-05-01T17:18:50.155Z,20.38
2023-05-01T17:21:21.052Z,20.28
2023-05-01T17:23:51.806Z,20.19
2023-05-01T17:26:23.336Z,20.08
2023-05-01T17:28:54.100Z,19.99
2023-05-01T17:31:24.849Z,19.89
2023-05-01T17:33:56.360Z,19.79
2023-05-01T17:36:28.731Z,19.68
2023-05-01T17:39:00.825Z,19.57
2023-05-01T17:41:30.810Z,19.44
2023-05-01T17:44:03.390Z,19.35
2023-05-01T17:46:34.384Z,19.24
2023-05-01T17:49:07.132Z,19.14
2023-05-01T17:51:37.857Z,19.02
2023-05-01T17:54:08.170Z,18.91
2023-05-01T17:56:38.691Z,18.80
2023-05-01T17:59:09.418Z,18.69
2023-05-01T18:01:40.024Z,18.57
2023-05-01T18:04:11.106Z,18.47
2023-05-01T18:06:43.048Z,18.36
2023-05-01T18:09:13.984Z,18.24
2023-05-01T18:11:44.722Z,18.13
2023-05-01T18:14:16.274Z,18.00
2023-05-01T18:16:46.842Z,17.89
2023-05-01T18:19:17.735Z,17.78
2023-05-01T18:21:49.294Z,17.66
2023-05-01T18:24:20.033Z,17.53
2023-05-01T18:26:51.375Z,17.43
2023-05-01T18:29:23.124Z,17.31
2023-05-01T18:31:54.406Z,17.20
2023-05-01T18:34:25.413Z,17.08
2023-05-01T18:36:55.944Z,16.97
2023-05-01T18:39:27.086Z,16.83
2023-05-01T18:41:57.617Z,16.74
2023-05-01T18:44:28.353Z,16.64
2023-05-01T18:46:59.182Z,16.55
2023-05-01T18:49:29.823Z,16.45
2023-05-01T18:52:01.168Z,16.36
2023-05-01T18:54:32.719Z,16.24
2023-05-01T18:57:03.273Z,16.15
2023-05-01T18:59:35.199Z,16.06
2023-05-01T19:02:04.972Z,15.96
2023-05-01T19:04:49.327Z,15.86
2023-05-01T19:07:27.308Z,15.75
2023-05-01T19:09:57.738Z,15.66
2023-05-01T19:12:29.542Z,15.58
2023-05-01T19:15:00.108Z,15.49
2023-05-01T19:17:31.097Z,15.37
2023-05-01T19:20:04.009Z,15.27
2023-05-01T19:22:34.930Z,15.19
2023-05-01T19:25:06.030Z,15.11
2023-05-01T19:27:37.827Z,15.05
2023-05-01T19:30:11.962Z,14.95
2023-05-01T19:32:42.593Z,14.88
2023-05-01T19:35:14.123Z,14.79
2023-05-01T19:37:44.853Z,14.73
2023-05-01T19:40:15.480Z,14.64
2023-05-01T19:42:46.530Z,14.59
2023-05-01T19:45:18.001Z,14.53
2023-05-01T19:47:48.636Z,14.48
2023-05-01T19:50:19.749Z,14.42
2023-05-01T19:52:50.069Z,14.37
2023-05-01T19:55:21.216Z,14.31
2023-05-01T19:57:54.196Z,14.26
2023-05-01T20:00:24.931Z,14.18
2023-05-01T20:02:55.770Z,14.14
2023-05-01T20:05:29.197Z,14.08
2023-05-01T20:08:01.643Z,14.02
2023-05-01T20:10:34.828Z,13.96
2023-05-01T20:13:09.882Z,13.92
2023-05-01T20:15:42.846Z,13.88
2023-05-01T20:18:13.620Z,13.83
2023-05-01T20:20:43.900Z,13.78
2023-05-01T20:23:16.481Z,13.75
2023-05-01T20:25:48.034Z,13.71
2023-05-01T20:28:20.192Z,13.69
2023-05-01T20:30:50.320Z,13.66
2023-05-01T20:33:21.248Z,13.63
2023-05-01T20:35:52.610Z,13.61
2023-05-01T20:38:23.966Z,13.58
2023-05-01T20:40:54.674Z,13.54
2023-05-01T20:43:26.429Z,13.50
2023-05-01T20:45:56.987Z,13.46
2023-05-01T20:48:27.293Z,13.42
2023-05-01T20:50:57.631Z,13.37
2023-05-01T20:53:27.724Z,13.31
2023-05-01T20:55:58.668Z,13.26
2023-05-01T20:58:28.982Z,13.21
2023-05-01T21:01:01.356Z,13.16
2023-05-01T21:03:32.915Z,13.11
2023-05-01T21:06:05.029Z,13.06
2023-05-01T21:08:34.163Z,13.00
2023-05-01T21:11:05.724Z,12.95
2023-05-01T21:13:36.256Z,12.90
2023-05-01T21:16:13.570Z,12.86
2023-05-01T21:18:44.274Z,12.81
2023-05-01T21:21:15.810Z,12.76
2023-05-01T21:23:48.351Z,12.72
2023-05-01T21:26:19.325Z,12.69
2023-05-01T21:28:51.495Z,12.64
2023-05-01T21:31:26.151Z,12.59
2023-05-01T21:34:01.773Z,12.56
2023-05-01T21:36:32.705Z,12.52
2023-05-01T21:39:04.260Z,12.49
2023-05-01T21:41:35.400Z,12.46
2023-05-01T21:44:06.537Z,12.42
2023-05-01T21:46:37.118Z,12.40
2023-05-01T21:49:09.023Z,12.38
2023-05-01T21:51:40.378Z,12.35
2023-05-01T21:54:10.911Z,12.30
2023-05-01T21:56:41.637Z,12.26
2023-05-01T21:59:13.407Z,12.23
2023-05-01T22:01:44.299Z,12.21
2023-05-01T22:04:18.120Z,12.16
2023-05-01T22:06:48.891Z,12.12
2023-05-01T22:09:20.835Z,12.10
2023-05-01T22:11:50.742Z,12.07
2023-05-01T22:14:21.060Z,12.03
2023-05-01T22:16:51.637Z,12.00
2023-05-01T22:19:22.320Z,11.96
2023-05-01T22:21:52.854Z,11.93
2023-05-01T22:24:23.582Z,11.88
2023-05-01T22:26:53.497Z,11.86
2023-05-01T22:29:23.410Z,11.80
2023-05-01T22:31:54.998Z,11.76
2023-05-01T22:34:25.696Z,11.73
2023-05-01T22:36:56.633Z,11.67
2023-05-01T22:39:27.978Z,11.63
2023-05-01T22:41:58.305Z,11.57
2023-05-01T22:44:28.830Z,11.53
2023-05-01T22:46:59.362Z,11.49
2023-05-01T22:49:31.528Z,11.44
2023-05-01T22:52:02.256Z,11.41
2023-05-01T22:54:32.793Z,11.37
2023-05-01T22:57:03.519Z,11.33
2023-05-01T22:59:34.252Z,11.28
2023-05-01T23:02:05.093Z,11.25
2023-05-01T23:04:35.515Z,11.23
2023-05-01T23:07:06.452Z,11.20
2023-05-01T23:09:36.968Z,11.17
2023-05-01T23:12:14.693Z,11.14
2023-05-01T23:14:46.832Z,11.11
2023-05-01T23:17:16.752Z,11.10
2023-05-01T23:19:47.307Z,11.06
2023-05-01T23:22:19.613Z,11.02
2023-05-01T23:24:50.168Z,10.98
2023-05-01T23:27:22.134Z,10.96
2023-05-01T23:29:55.686Z,10.92
2023-05-01T23:32:27.310Z,10.89
2023-05-01T23:35:03.071Z,10.87
2023-05-01T23:37:33.259Z,10.82
2023-05-01T23:40:04.811Z,10.78
2023-05-01T23:42:37.797Z,10.75
2023-05-01T23:45:11.108Z,10.71
2023-05-01T23:47:41.957Z,10.69
2023-05-01T23:50:13.679Z,10.64
2023-05-01T23:52:44.616Z,10.62
2023-05-01T23:55:14.532Z,10.58
2023-05-01T23:57:45.057Z,10.54
